Test XHTML 1.0 Strict Page for WU-History Testing
Histórico de la Estación METEOCORUÑA
Diario Datos del Mayo 16, 2018 Unidades:  Metrico    Inglés   Ambos
« Prev Dia
Sig Dia »
Diario Semanal Mensual Anual Rango
  Max: Min: Media:
Temp: -17.8 °C -10.9 °C -10.3 °C
Rocío: -17.8 °C -58.5 °C -13.9 °C
Humedad: Humidity % 72 % 83 %
Vel. viento: 0 km/h 0 km/h 24.6 km/h
Racha: 0 km/h - -
Viento:- - SE
Presión: 0 hPa -114650 hPa -
Lluvia: 0 mm    
Historical Graphs
 
 
Busqueda de Mayo 16, 2018
Hora Temp Rocío Presión Viento Vel. viento Racha Humedad Ratio lluvia (/hora) Radiación
-17.8 °C -17.8 °C 0 hPa Calm     Humidity % 0 mm SolarRadiationWatts/m^2 W/m2
00:03 -10.4 °C -12 °C 34635.4 hPa NE 36.2 km/h 36.2 km/h 83 % 0 mm 0.0 W/m2
00:08 -10.4 °C -12 °C 34645.6 hPa NE 29.8 km/h 29.8 km/h 83 % 0 mm 0.0 W/m2
00:13 -10.4 °C -11.9 °C 34645.6 hPa North 12.9 km/h 12.9 km/h 83 % 0 mm 0.0 W/m2
00:18 -10.4 °C -12 °C 34645.6 hPa NNE 20.9 km/h 20.9 km/h 83 % 0 mm 0.0 W/m2
00:23 -10.4 °C -11.9 °C 34645.6 hPa North 23.8 km/h 23.8 km/h 84 % 0 mm 0.0 W/m2
00:28 -10.4 °C -11.9 °C 34635.4 hPa NNE 20.9 km/h 20.9 km/h 84 % 0 mm 0.0 W/m2
00:33 -10.4 °C -11.9 °C 34659.1 hPa NNE 10.3 km/h 23.3 km/h 84 % 0 mm 0 W/m2
00:38 -10.4 °C -11.9 °C 34635.4 hPa NE 23.8 km/h 23.8 km/h 84 % 0 mm 0.0 W/m2
00:43 -10.4 °C -11.9 °C 34635.4 hPa NNW 23.3 km/h 23.3 km/h 84 % 0 mm 0.0 W/m2
00:48 -10.5 °C -12 °C 34635.4 hPa NNE 31.1 km/h 31.1 km/h 84 % 0 mm 0.0 W/m2
00:53 -10.5 °C -12 °C 34635.4 hPa North 23.8 km/h 23.8 km/h 84 % 0 mm 0.0 W/m2
00:58 -10.5 °C -12 °C 34635.4 hPa NNE 20.9 km/h 20.9 km/h 84 % 0 mm 0.0 W/m2
01:03 -10.5 °C -12 °C 34635.4 hPa NNE 23.3 km/h 23.3 km/h 84 % 0 mm 0.0 W/m2
01:08 -10.6 °C -12.1 °C 34645.6 hPa NNE 12.9 km/h 31.1 km/h 84 % 0 mm 0 W/m2
01:13 -10.6 °C -12.1 °C 34645.6 hPa NNE 15.6 km/h 33.6 km/h 83 % 0 mm 0 W/m2
01:18 -10.5 °C -12.1 °C 34645.6 hPa NNE 18.2 km/h 38.8 km/h 83 % 0 mm 0 W/m2
01:23 -10.5 °C -12.1 °C 34645.6 hPa NNE 15.6 km/h 33.6 km/h 83 % 0 mm 0 W/m2
01:28 -10.5 °C -12.1 °C 34645.6 hPa NNE 15.6 km/h 28.5 km/h 83 % 0 mm 0 W/m2
01:33 -10.4 °C -12 °C 34645.6 hPa NNE 12.9 km/h 25.9 km/h 83 % 0 mm 0 W/m2
01:38 -10.4 °C -12 °C 34645.6 hPa NNE 12.9 km/h 20.8 km/h 83 % 0 mm 0 W/m2
01:43 -10.4 °C -12.1 °C 34625.2 hPa NE 26.9 km/h 26.9 km/h 83 % 0 mm 0.0 W/m2
01:48 -10.4 °C -12 °C 34645.6 hPa NNE 12.9 km/h 23.3 km/h 83 % 0 mm 0 W/m2
01:53 -10.4 °C -12.1 °C 34625.2 hPa North 31.1 km/h 31.1 km/h 83 % 0 mm 0.0 W/m2
01:58 -10.4 °C -12.1 °C 34625.2 hPa NNE 23.8 km/h 23.8 km/h 83 % 0 mm 0.0 W/m2
02:03 -10.4 °C -12 °C 34625.2 hPa NE 32.8 km/h 32.8 km/h 83 % 0 mm 0.0 W/m2
02:08 -10.4 °C -12 °C 34635.4 hPa NNE 10.3 km/h 18.2 km/h 83 % 0 mm 0 W/m2
02:13 -10.4 °C -12.1 °C 34625.2 hPa NNE 29.8 km/h 29.8 km/h 83 % 0 mm 0.0 W/m2
02:18 -10.4 °C -12.1 °C 34625.2 hPa NNE 20.8 km/h 20.8 km/h 83 % 0 mm 0.0 W/m2
02:23 -10.4 °C -12 °C 34635.4 hPa NNE 12.9 km/h 41.4 km/h 83 % 0 mm 0 W/m2
02:28 -10.4 °C -12 °C 34635.4 hPa NNE 18.2 km/h 33.6 km/h 83 % 0 mm 0 W/m2
02:33 -10.4 °C -12 °C 34635.4 hPa NNE 18.2 km/h 36.2 km/h 83 % 0 mm 0 W/m2
02:38 -10.4 °C -12 °C 34625.2 hPa NNE 15.6 km/h 33.6 km/h 83 % 0 mm 0 W/m2
02:43 -10.4 °C -12 °C 34625.2 hPa NE 15.6 km/h 33.6 km/h 83 % 0 mm 0 W/m2
02:48 -10.4 °C -12.1 °C 34611.7 hPa NNE 31.1 km/h 31.1 km/h 83 % 0 mm 0.0 W/m2
02:53 -10.4 °C -12.1 °C 34611.7 hPa NE 33.6 km/h 33.6 km/h 83 % 0 mm 0.0 W/m2
02:58 -10.5 °C -12.2 °C 34611.7 hPa ENE 41.4 km/h 41.4 km/h 82 % 0 mm 0.0 W/m2
03:03 -10.4 °C -12.1 °C 34625.2 hPa NNE 20.8 km/h 36.2 km/h 82 % 0 mm 0 W/m2
03:08 -10.4 °C -12.2 °C 34625.2 hPa NE 20.8 km/h 46.7 km/h 81 % 0 mm 0 W/m2
03:13 -10.4 °C -12.2 °C 34601.5 hPa ENE 44.1 km/h 44.1 km/h 81 % 0 mm 0.0 W/m2
03:18 -10.4 °C -12.2 °C 34625.2 hPa NNE 23.3 km/h 36.2 km/h 81 % 0 mm 0 W/m2
03:23 -10.4 °C -12.2 °C 34601.5 hPa NE 47.6 km/h 47.6 km/h 81 % 0 mm 0.0 W/m2
03:28 -10.4 °C -12.2 °C 34601.5 hPa NNE 44.1 km/h 44.1 km/h 81 % 0 mm 0.0 W/m2
03:33 -10.4 °C -12.2 °C 34611.7 hPa NNE 20.8 km/h 38.8 km/h 81 % 0 mm 0 W/m2
03:38 -10.4 °C -12.1 °C 34601.5 hPa NE 20.9 km/h 20.9 km/h 82 % 0 mm 0.0 W/m2
03:43 -10.4 °C -12.1 °C 34601.5 hPa North 31.1 km/h 31.1 km/h 82 % 0 mm 0.0 W/m2
03:48 -10.4 °C -12.1 °C 34611.7 hPa NNE 12.9 km/h 36.2 km/h 82 % 0 mm 0 W/m2
03:53 -10.5 °C -12.2 °C 34611.7 hPa NNE 15.6 km/h 23.3 km/h 82 % 0 mm 0 W/m2
03:58 -10.6 °C -12.2 °C 34591.4 hPa West 36.2 km/h 36.2 km/h 82 % 0 mm 0.0 W/m2
04:03 -10.6 °C -12.3 °C 34591.4 hPa North 29.8 km/h 29.8 km/h 82 % 0 mm 0.0 W/m2
04:08 -10.6 °C -12.2 °C 34601.5 hPa NE 12.9 km/h 23.3 km/h 83 % 0 mm 0 W/m2
04:13 -10.7 °C -12.2 °C 34601.5 hPa NE 12.9 km/h 28.5 km/h 83 % 0 mm 0 W/m2
04:18 -10.7 °C -12.2 °C 34591.4 hPa NE 20.9 km/h 20.9 km/h 83 % 0 mm 0.0 W/m2
04:23 -10.7 °C -12.2 °C 34601.5 hPa NE 12.9 km/h 31.1 km/h 83 % 0 mm 0 W/m2
04:28 -10.7 °C -12.3 °C 34577.8 hPa NNE 29.8 km/h 29.8 km/h 83 % 0 mm 0.0 W/m2
04:33 -10.7 °C -12.2 °C 34591.4 hPa NE 10.3 km/h 23.3 km/h 84 % 0 mm 0 W/m2
04:38 -10.7 °C -12.2 °C 34577.8 hPa NE 12.9 km/h 12.9 km/h 84 % 0 mm 0.0 W/m2
04:43 -10.7 °C -12.2 °C 34577.8 hPa NE 28.5 km/h 28.5 km/h 84 % 0 mm 0.0 W/m2
04:48 -10.7 °C -12.2 °C 34591.4 hPa NNE 12.9 km/h 23.3 km/h 84 % 0 mm 0 W/m2
04:53 -10.7 °C -12.2 °C 34591.4 hPa NE 10.3 km/h 10.3 km/h 84 % 0 mm 0 W/m2
04:58 -10.7 °C -12.2 °C 34591.4 hPa NE 10.3 km/h 10.3 km/h 84 % 0 mm 0 W/m2
05:03 -10.7 °C -12.2 °C 34577.8 hPa Calm     84 % 0 mm 0.0 W/m2
05:08 -10.7 °C -12.2 °C 34591.4 hPa NE 10.3 km/h 10.3 km/h 84 % 0 mm 0 W/m2
05:13 -10.7 °C -12.2 °C 34567.7 hPa Calm     84 % 0 mm 0.0 W/m2
05:18 -10.7 °C -12.1 °C 34567.7 hPa NNE 20.9 km/h 20.9 km/h 85 % 0 mm 0.0 W/m2
05:23 -10.8 °C -12.1 °C 34567.7 hPa NE 17.9 km/h 17.9 km/h 85 % 0 mm 0.0 W/m2
05:28 -10.8 °C -12.2 °C 34567.7 hPa NNE 18.2 km/h 18.2 km/h 85 % 0 mm 0.0 W/m2
05:33 -10.8 °C -12.1 °C 34577.8 hPa NNE 7.7 km/h 15.6 km/h 85 % 0 mm 0 W/m2
05:38 -10.8 °C -12.1 °C 34577.8 hPa NNE 7.7 km/h 15.6 km/h 86 % 0 mm 0 W/m2
05:43 -10.8 °C -12.1 °C 34577.8 hPa NNE 7.7 km/h 15.6 km/h 86 % 0 mm 0 W/m2
05:48 -10.8 °C -12.1 °C 34577.8 hPa North 7.7 km/h 15.6 km/h 86 % 0 mm 0 W/m2
05:53 -10.9 °C -12.2 °C 34577.8 hPa North 5.1 km/h 15.6 km/h 86 % 0 mm 0 W/m2
05:58 -10.9 °C -12.1 °C 34577.8 hPa North 5.1 km/h 18.2 km/h 87 % 0 mm 0 W/m2
06:03 -10.9 °C -12.1 °C 34567.7 hPa North 18.2 km/h 18.2 km/h 87 % 0 mm 0.0 W/m2
06:05 -10.9 °C -12.1 °C 34577.8 hPa NNE 5.1 km/h 18.2 km/h 87 % 0 mm 0 W/m2
06:10 -10.9 °C -12.1 °C 34567.7 hPa North 7.7 km/h 20.8 km/h 87 % 0 mm 0 W/m2
06:15 -10.9 °C -12.1 °C 34577.8 hPa North 7.7 km/h 20.8 km/h 87 % 0 mm 0 W/m2
06:20 -10.9 °C -12.1 °C 34567.7 hPa North 7.7 km/h 12.9 km/h 87 % 0 mm 0 W/m2
06:28 -10.9 °C -12.1 °C 34554.1 hPa NNE 17.9 km/h 17.9 km/h 87 % 0 mm 0.0 W/m2
06:33 -10.9 °C -12.1 °C 34554.1 hPa North 20.9 km/h 20.9 km/h 87 % 0 mm 0.0 W/m2
06:38 -10.9 °C -12.1 °C 34567.7 hPa NNE 7.7 km/h 18.2 km/h 87 % 0 mm 0 W/m2
06:43 -10.9 °C -12.1 °C 34554.1 hPa NNE 15.6 km/h 15.6 km/h 87 % 0 mm 0.0 W/m2
06:48 -10.9 °C -12.1 °C 34554.1 hPa NNE 17.9 km/h 17.9 km/h 87 % 0 mm 0.0 W/m2
06:53 -10.9 °C -12.1 °C 34554.1 hPa NNE 18.2 km/h 18.2 km/h 87 % 0 mm 0.0 W/m2
06:58 -10.9 °C -12.1 °C 34567.7 hPa NNE 7.7 km/h 20.8 km/h 87 % 0 mm 0 W/m2
07:03 -10.9 °C -12.1 °C 34567.7 hPa NNE 10.3 km/h 20.8 km/h 87 % 0 mm 0 W/m2
07:08 -10.9 °C -12.1 °C 34554.1 hPa NNE 29.8 km/h 29.8 km/h 87 % 0 mm 5.0 W/m2
07:13 -10.9 °C -12.2 °C 34554.1 hPa NE 23.8 km/h 23.8 km/h 86 % 0 mm 7.0 W/m2
07:18 -10.8 °C -12.1 °C 34554.1 hPa North 20.8 km/h 20.8 km/h 86 % 0 mm 7.0 W/m2
07:23 -10.8 °C -12.1 °C 34554.1 hPa NE 31.1 km/h 31.1 km/h 86 % 0 mm 9.0 W/m2
07:28 -10.7 °C -12 °C 34554.1 hPa NNE 23.8 km/h 23.8 km/h 86 % 0 mm 11.0 W/m2
07:33 -10.7 °C -12 °C 34577.8 hPa NE 12.9 km/h 23.3 km/h 86 % 0 mm 11 W/m2
07:38 -10.7 °C -12.1 °C 34577.8 hPa NNE 10.3 km/h 31.1 km/h 85 % 0 mm 12 W/m2
07:43 -10.6 °C -12 °C 34577.8 hPa NNE 12.9 km/h 25.9 km/h 85 % 0 mm 18 W/m2
07:48 -10.6 °C -12 °C 34567.7 hPa North 23.8 km/h 23.8 km/h 85 % 0 mm 18.0 W/m2
07:53 -10.6 °C -12 °C 34554.1 hPa NNW 20.9 km/h 20.9 km/h 85 % 0 mm 21.0 W/m2
07:58 -10.6 °C -11.9 °C 34554.1 hPa NE 29.8 km/h 29.8 km/h 85 % 0 mm 35.0 W/m2
08:03 -10.6 °C -12 °C 34577.8 hPa NNE 10.3 km/h 15.6 km/h 85 % 0 mm 30 W/m2
08:08 -10.6 °C -11.9 °C 34567.7 hPa NNE 29.8 km/h 29.8 km/h 85 % 0 mm 30.0 W/m2
08:13 -10.6 °C -11.9 °C 34577.8 hPa NNE 12.9 km/h 28.5 km/h 85 % 0 mm 40 W/m2
08:18 -10.6 °C -12.1 °C 34577.8 hPa NE 12.9 km/h 25.9 km/h 84 % 0 mm 51 W/m2
08:23 -10.5 °C -11.9 °C 34577.8 hPa NNE 12.9 km/h 25.9 km/h 85 % 0 mm 60 W/m2
08:28 -10.5 °C -11.8 °C 34567.7 hPa NNE 26.9 km/h 26.9 km/h 85 % 0 mm 60.0 W/m2
08:33 -10.5 °C -11.9 °C 34577.8 hPa NNE 10.3 km/h 15.6 km/h 85 % 0 mm 47 W/m2
08:38 -10.4 °C -11.8 °C 34567.7 hPa ENE 23.8 km/h 23.8 km/h 85 % 0 mm 130.0 W/m2
08:43 -10.3 °C -11.7 °C 34567.7 hPa NNE 17.9 km/h 17.9 km/h 85 % 0 mm 95.0 W/m2
08:48 -10.2 °C -11.7 °C 34567.7 hPa NNE 15.6 km/h 15.6 km/h 84 % 0 mm 179.0 W/m2
08:53 -10.2 °C -11.6 °C 34567.7 hPa NE 18.2 km/h 18.2 km/h 84 % 0 mm 230.0 W/m2
09:03 -10.1 °C -11.6 °C 34577.8 hPa NNE 10.3 km/h 25.9 km/h 83 % 0 mm 265 W/m2
09:13 -10.1 °C -58.5 °C -114650 hPa ENE 20.8 km/h 25.9 km/h 82 % 0 mm 380 W/m2
09:18 -10 °C -11.7 °C 34591.4 hPa NNW 10.3 km/h 18.2 km/h 82 % 0 mm 137 W/m2
09:28 -10.2 °C -11.6 °C 34591.4 hPa North 10.3 km/h 20.8 km/h 85 % 0 mm 336 W/m2
09:38 -10.3 °C -11.6 °C 34577.8 hPa NNE 10.3 km/h 25.9 km/h 86 % 0 mm 144 W/m2
09:53 -10.2 °C -11.7 °C 34591.4 hPa NNE 12.9 km/h 31.1 km/h 84 % 0 mm 155 W/m2
10:08 -10.1 °C -58.5 °C -114650 hPa NE 15.6 km/h 23.3 km/h 83 % 0 mm 195 W/m2
10:18 -9.9 °C -11.5 °C 34591.4 hPa NE 10.3 km/h 31.1 km/h 83 % 0 mm 244 W/m2
10:38 -9.8 °C -58.5 °C -114650 hPa NNE 12.9 km/h 38.8 km/h 81 % 0 mm 304 W/m2
10:53 -9.8 °C -58.5 °C -114650 hPa NW 12.9 km/h 20.8 km/h 83 % 0 mm 308 W/m2
10:58 -9.9 °C -11.3 °C 34577.8 hPa North 12.9 km/h 28.5 km/h 85 % 0 mm 253 W/m2
11:03 -9.9 °C -11.2 °C 34577.8 hPa NNW 12.9 km/h 28.5 km/h 86 % 0 mm 241 W/m2
11:08 -9.9 °C -11.2 °C 34577.8 hPa North 12.9 km/h 33.6 km/h 86 % 0 mm 225 W/m2
11:13 -9.9 °C -11.2 °C 34577.8 hPa North 12.9 km/h 20.8 km/h 86 % 0 mm 258 W/m2
11:18 -9.8 °C -11.1 °C 34577.8 hPa NW 10.3 km/h 15.6 km/h 86 % 0 mm 285 W/m2
11:23 -9.9 °C -11.2 °C 34577.8 hPa North 10.3 km/h 25.9 km/h 86 % 0 mm 271 W/m2
11:28 -9.9 °C -11.2 °C 34577.8 hPa NNE 12.9 km/h 33.6 km/h 86 % 0 mm 262 W/m2
11:43 -9.8 °C -11.2 °C 34577.8 hPa NNW 10.3 km/h 25.9 km/h 85 % 0 mm 269 W/m2
11:48 -9.8 °C -11.2 °C 34577.8 hPa NNW 12.9 km/h 33.6 km/h 85 % 0 mm 250 W/m2
11:58 -9.8 °C -58.5 °C -114650 hPa NE 10.3 km/h 23.3 km/h 85 % 0 mm 330 W/m2
12:08 -9.6 °C -11.3 °C 34567.7 hPa NNE 12.9 km/h 33.6 km/h 81 % 0 mm 311 W/m2
12:13 -9.6 °C -11.4 °C 34567.7 hPa NNE 18.2 km/h 31.1 km/h 80 % 0 mm 355 W/m2
12:18 -9.5 °C -11.5 °C 34567.7 hPa NNE 18.2 km/h 33.6 km/h 79 % 0 mm 345 W/m2
12:28 -9.4 °C -11.7 °C 34554.1 hPa NNE 44.7 km/h 44.7 km/h 77 % 0 mm 297.0 W/m2
12:33 -9.4 °C -11.7 °C 34554.1 hPa NNE 41.7 km/h 41.7 km/h 77 % 0 mm 325.0 W/m2
12:38 -9.4 °C -58.5 °C -114650 hPa NNE 7.7 km/h 41.4 km/h 77 % 0 mm 330 W/m2
12:43 -9.4 °C -11.7 °C 34567.7 hPa NNE 20.8 km/h 33.6 km/h 76 % 0 mm 366 W/m2
12:48 -9.3 °C -11.7 °C 34567.7 hPa NNE 18.2 km/h 33.6 km/h 76 % 0 mm 330 W/m2
13:23 -8.8 °C -11.6 °C 34554.1 hPa NNE 12.9 km/h 36.2 km/h 72 % 0 mm 559 W/m2
14:23 -8.8 °C -11.3 °C 34533.8 hPa NNE 18.2 km/h 41.4 km/h 75 % 0 mm 842 W/m2
15:03 -9.1 °C -11.4 °C 34520.3 hPa NW 15.6 km/h 44.1 km/h 76 % 0 mm 647 W/m2
15:08 -9.3 °C -11.4 °C 34520.3 hPa NW 20.8 km/h 44.1 km/h 78 % 0 mm 589 W/m2
15:13 -9.3 °C -11.3 °C 34520.3 hPa NW 23.3 km/h 41.4 km/h 79 % 0 mm 990 W/m2
15:18 -9.4 °C -58.5 °C -114650 hPa NNW 23.3 km/h 51.8 km/h 78 % 0 mm 967 W/m2
15:23 -9.3 °C -11.4 °C 34520.3 hPa NW 23.3 km/h 44.1 km/h 78 % 0 mm 877 W/m2
15:28 -9.4 °C -11.5 °C 34510.1 hPa NNW 23.3 km/h 49.2 km/h 78 % 0 mm 870 W/m2
15:48 -9.4 °C -58.5 °C -114650 hPa WNW 28.5 km/h 51.8 km/h 78 % 0 mm 854 W/m2
16:08 -9.7 °C -11.6 °C 34496.6 hPa North 62.6 km/h 62.6 km/h 80 % 0 mm 831.0 W/m2
16:38 -9.8 °C -58.5 °C -114650 hPa NNW 38.8 km/h 64.7 km/h 80 % 0 mm 788 W/m2
16:43 -9.8 °C -58.5 °C -114650 hPa NW 25.9 km/h 59.5 km/h 82 % 0 mm 766 W/m2
17:08 -9.8 °C -11.6 °C 34476.3 hPa North 54.4 km/h 54.4 km/h 82 % 0 mm 735.0 W/m2
17:13 -9.9 °C -11.6 °C 34476.3 hPa WNW 68.6 km/h 68.6 km/h 82 % 0 mm 722.0 W/m2
17:18 -9.9 °C -11.4 °C 34476.3 hPa South 59.5 km/h 59.5 km/h 83 % 0 mm 714.0 W/m2
17:23 -9.8 °C -11.4 °C 34476.3 hPa NNW 44.7 km/h 44.7 km/h 83 % 0 mm 705.0 W/m2
17:28 -9.9 °C -11.4 °C 34462.7 hPa West 67.3 km/h 67.3 km/h 84 % 0 mm 694.0 W/m2
17:29 -9.9 °C -11.4 °C 34476.3 hPa NNW 31.1 km/h 67.3 km/h 84 % 0 mm 689 W/m2
17:34 -9.9 °C -11.4 °C 34486.4 hPa NW 33.6 km/h 69.8 km/h 84 % 0 mm 679 W/m2
17:39 -10 °C -11.5 °C 34486.4 hPa NNW 36.2 km/h 64.7 km/h 84 % 0 mm 666 W/m2
17:44 -10 °C -11.4 °C 34476.3 hPa NNW 38.8 km/h 62.1 km/h 85 % 0 mm 656 W/m2
17:49 -10.1 °C -11.4 °C 34476.3 hPa NW 38.8 km/h 59.5 km/h 85 % 0 mm 643 W/m2
17:54 -10.1 °C -11.4 °C 34476.3 hPa NNW 38.8 km/h 69.8 km/h 85 % 0 mm 631 W/m2
17:59 -10.1 °C -11.5 °C 34476.3 hPa NNW 41.4 km/h 75.2 km/h 85 % 0 mm 615 W/m2
18:04 -10.1 °C -11.4 °C 34476.3 hPa NW 44.1 km/h 62.1 km/h 85 % 0 mm 603 W/m2
18:09 -10.1 °C -11.5 °C 34476.3 hPa NNW 41.4 km/h 62.1 km/h 85 % 0 mm 587 W/m2
18:14 -10.1 °C -11.4 °C 34476.3 hPa NW 38.8 km/h 62.1 km/h 85 % 0 mm 571 W/m2
18:19 -10.1 °C -11.5 °C 34476.3 hPa NW 38.8 km/h 62.1 km/h 85 % 0 mm 559 W/m2
18:24 -10.1 °C -11.4 °C 34476.3 hPa NW 36.2 km/h 64.7 km/h 85 % 0 mm 548 W/m2
18:29 -10.1 °C -11.5 °C 34462.7 hPa NW 38.8 km/h 62.1 km/h 85 % 0 mm 536 W/m2
18:34 -10.1 °C -11.5 °C 34476.3 hPa NW 41.4 km/h 54.4 km/h 85 % 0 mm 522 W/m2
18:39 -10.1 °C -11.5 °C 34476.3 hPa NNW 38.8 km/h 67.3 km/h 85 % 0 mm 494 W/m2
18:44 -10.2 °C -11.4 °C 34476.3 hPa NNW 38.8 km/h 67.3 km/h 86 % 0 mm 475 W/m2
18:49 -10.1 °C -11.5 °C 34476.3 hPa NNW 41.4 km/h 69.8 km/h 85 % 0 mm 473 W/m2
18:54 -10.1 °C -11.6 °C 34462.7 hPa NW 41.4 km/h 62.1 km/h 84 % 0 mm 466 W/m2
18:59 -10.1 °C -11.6 °C 34476.3 hPa NW 38.8 km/h 72.6 km/h 84 % 0 mm 454 W/m2
19:04 -10.1 °C -11.4 °C 34476.3 hPa NW 38.8 km/h 59.5 km/h 85 % 0 mm 434 W/m2
19:09 -10.1 °C -11.6 °C 34476.3 hPa NW 38.8 km/h 62.1 km/h 84 % 0 mm 422 W/m2
19:14 -10.1 °C -11.6 °C 34462.7 hPa NW 38.8 km/h 69.8 km/h 84 % 0 mm 403 W/m2
19:19 -10.1 °C -11.6 °C 34476.3 hPa NNW 38.8 km/h 67.3 km/h 84 % 0 mm 394 W/m2
19:24 -10.1 °C -11.4 °C 34476.3 hPa NW 36.2 km/h 64.7 km/h 85 % 0 mm 367 W/m2
19:30 -10.1 °C -11.6 °C 34462.7 hPa NW 59.5 km/h 59.5 km/h 84 % 0 mm 343.0 W/m2
19:35 -10.1 °C -11.5 °C 34452.6 hPa NNW 57 km/h 57 km/h 85 % 0 mm 346.0 W/m2
19:40 -10.1 °C -11.5 °C 34452.6 hPa NNW 64.7 km/h 64.7 km/h 85 % 0 mm 315.0 W/m2
19:45 -10.1 °C -11.6 °C 34462.7 hPa WNW 54.4 km/h 54.4 km/h 84 % 0 mm 288.0 W/m2
19:50 -10.1 °C -11.5 °C 34462.7 hPa NW 36.2 km/h 67.3 km/h 85 % 0 mm 292 W/m2
19:55 -10.1 °C -11.5 °C 34452.6 hPa NW 54.4 km/h 54.4 km/h 85 % 0 mm 258.0 W/m2
20:00 -10.2 °C -11.6 °C 34452.6 hPa NW 59.5 km/h 59.5 km/h 85 % 0 mm 251.0 W/m2
20:05 -10.2 °C -11.6 °C 34452.6 hPa NNW 64.7 km/h 64.7 km/h 85 % 0 mm 220.0 W/m2
20:10 -10.2 °C -11.6 °C 34452.6 hPa SE 53.6 km/h 53.6 km/h 85 % 0 mm 185.0 W/m2
20:15 -10.2 °C -11.6 °C 34462.7 hPa NNW 31.1 km/h 49.2 km/h 85 % 0 mm 199 W/m2
20:20 -10.2 °C -11.6 °C 34462.7 hPa NNW 28.5 km/h 46.7 km/h 85 % 0 mm 186 W/m2
20:25 -10.2 °C -11.6 °C 34462.7 hPa NNW 28.5 km/h 49.2 km/h 85 % 0 mm 192 W/m2
20:30 -10.1 °C -11.5 °C 34452.6 hPa NW 26.9 km/h 26.9 km/h 85 % 0 mm 171.0 W/m2
20:35 -10.1 °C -11.4 °C 34452.6 hPa North 35.7 km/h 35.7 km/h 85 % 0 mm 149.0 W/m2
20:40 -10 °C -11.4 °C 34452.6 hPa North 23.3 km/h 23.3 km/h 85 % 0 mm 132.0 W/m2
20:45 -9.9 °C -11.4 °C 34452.6 hPa ESE 23.3 km/h 23.3 km/h 84 % 0 mm 116.0 W/m2
20:50 -9.9 °C -11.5 °C 34452.6 hPa NE 25.9 km/h 25.9 km/h 83 % 0 mm 100.0 W/m2
20:55 -9.8 °C -11.4 °C 34462.7 hPa NNE 23.3 km/h 23.3 km/h 83 % 0 mm 86.0 W/m2
21:00 -9.8 °C -11.6 °C 34462.7 hPa North 20.9 km/h 20.9 km/h 82 % 0 mm 70.0 W/m2
21:05 -9.8 °C -11.7 °C 34462.7 hPa North 32.8 km/h 32.8 km/h 80 % 0 mm 60.0 W/m2
21:10 -9.8 °C -11.7 °C 34462.7 hPa NE 29.8 km/h 29.8 km/h 80 % 0 mm 49.0 W/m2
21:15 -9.9 °C -11.8 °C 34462.7 hPa NNW 32.8 km/h 32.8 km/h 80 % 0 mm 39.0 W/m2
21:20 -9.9 °C -11.8 °C 34462.7 hPa NNE 26.9 km/h 26.9 km/h 80 % 0 mm 26.0 W/m2
21:25 -10 °C -11.9 °C 34462.7 hPa NE 26.9 km/h 26.9 km/h 80 % 0 mm 23.0 W/m2
21:30 -10.1 °C -11.9 °C 34476.3 hPa North 15.6 km/h 33.6 km/h 80 % 0 mm 19 W/m2
21:35 -10.1 °C -12 °C 34462.7 hPa North 33.6 km/h 33.6 km/h 80 % 0 mm 16.0 W/m2
21:40 -10.1 °C -12 °C 34486.4 hPa North 18.2 km/h 36.2 km/h 80 % 0 mm 12 W/m2
21:45 -10.2 °C -12.1 °C 34476.3 hPa NNE 35.7 km/h 35.7 km/h 80 % 0 mm 9.0 W/m2
21:50 -10.2 °C -12.1 °C 34476.3 hPa North 28.5 km/h 28.5 km/h 80 % 0 mm 5.0 W/m2
21:55 -10.2 °C -12.1 °C 34476.3 hPa NNE 31.1 km/h 31.1 km/h 80 % 0 mm 0.0 W/m2
22:00 -10.3 °C -12.2 °C 34476.3 hPa NNE 35.7 km/h 35.7 km/h 80 % 0 mm 0.0 W/m2
22:05 -10.3 °C -12.2 °C 34462.7 hPa NNE 36.2 km/h 36.2 km/h 80 % 0 mm 0.0 W/m2
22:10 -10.3 °C -12.2 °C 34486.4 hPa NNE 20.8 km/h 41.4 km/h 80 % 0 mm 0 W/m2
22:15 -10.4 °C -12.3 °C 34486.4 hPa NNE 20.8 km/h 36.2 km/h 80 % 0 mm 0 W/m2
22:20 -10.4 °C -12.3 °C 34462.7 hPa NE 41.7 km/h 41.7 km/h 80 % 0 mm 0.0 W/m2
22:25 -10.4 °C -12.3 °C 34486.4 hPa NNE 20.8 km/h 41.4 km/h 80 % 0 mm 0 W/m2
22:30 -10.4 °C -12.3 °C 34476.3 hPa NNE 41.7 km/h 41.7 km/h 80 % 0 mm 0.0 W/m2
22:35 -10.4 °C -12.2 °C 34486.4 hPa NNE 20.8 km/h 41.4 km/h 81 % 0 mm 0 W/m2
22:40 -10.4 °C -12.2 °C 34476.3 hPa NNE 32.8 km/h 32.8 km/h 81 % 0 mm 0.0 W/m2
22:45 -10.4 °C -12.2 °C 34486.4 hPa NNE 18.2 km/h 28.5 km/h 81 % 0 mm 0 W/m2
22:50 -10.4 °C -12.1 °C 34476.3 hPa NNE 29.8 km/h 29.8 km/h 82 % 0 mm 0.0 W/m2
22:55 -10.4 °C -12.1 °C 34476.3 hPa NNE 23.8 km/h 23.8 km/h 82 % 0 mm 0.0 W/m2
23:00 -10.4 °C -12 °C 34496.6 hPa NNE 15.6 km/h 31.1 km/h 83 % 0 mm 0 W/m2
23:05 -10.4 °C -12 °C 34496.6 hPa NE 12.9 km/h 23.3 km/h 83 % 0 mm 0 W/m2
23:10 -10.4 °C -12 °C 34486.4 hPa NNE 18.2 km/h 18.2 km/h 83 % 0 mm 0.0 W/m2
23:15 -10.4 °C -12 °C 34486.4 hPa NNE 26.9 km/h 26.9 km/h 83 % 0 mm 0.0 W/m2
23:20 -10.4 °C -12 °C 34486.4 hPa NNE 20.9 km/h 20.9 km/h 83 % 0 mm 0.0 W/m2
23:25 -10.4 °C -12 °C 34486.4 hPa NE 29.8 km/h 29.8 km/h 83 % 0 mm 0.0 W/m2
23:30 -10.4 °C -12 °C 34486.4 hPa NNE 23.3 km/h 23.3 km/h 83 % 0 mm 0.0 W/m2
23:35 -10.4 °C -12.1 °C 34486.4 hPa NNE 32.8 km/h 32.8 km/h 83 % 0 mm 0.0 W/m2
23:40 -10.4 °C -12 °C 34496.6 hPa NNE 15.6 km/h 44.1 km/h 83 % 0 mm 0 W/m2
23:45 -10.4 °C -12.1 °C 34486.4 hPa NNW 29.8 km/h 29.8 km/h 83 % 0 mm 0.0 W/m2
23:50 -10.4 °C -12 °C 34496.6 hPa NNE 18.2 km/h 28.5 km/h 83 % 0 mm 0 W/m2
23:55 -10.5 °C -12.1 °C 34486.4 hPa North 36.2 km/h 36.2 km/h 83 % 0 mm 0.0 W/m2
Meteocoruña
Agradecimientos a Weather Underground - 3 mb